EFKE/KEM METAR and TAF weather

Enter ICAO airport designator
Station Type Date Time Source
EFKE METAR 2021/05/11 23:20 UTC NOAA

EFKE 112320Z AUTO VRB02KT 9999 -RA SCT002 BKN013 04/04 Q1016


Station Type Date Time Source
EFKE Decoded METAR 2021/05/11 23:20 UTC NOAA

Kemi, Finland (EFKE) 65-47N 024-35E
May 11, 2021 - 07:20 PM EDT / 2021.05.11 2320 UTC
Wind: Variable at 2 MPH (2 KT):0
Visibility: greater than 7 mile(s):0
Sky conditions: mostly cloudy
Weather: light rain
Temperature: 39 F (4 C)
Dew Point: 39 F (4 C)
Relative Humidity: 100%
Pressure (altimeter): 30.00 in. Hg (1016 hPa)
ob: EFKE 112320Z AUTO VRB02KT 9999 -RA SCT002 BKN013 04/04 Q1016
cycle: 23

Station Type Date Time Source
EFKE TAF 2015/01/12 15:42 UTC NOAA

TAF EFKE 121433Z 1215/1312 03006KT CAVOK
BECMG 1300/1302 9999 BKN015
FM130400 07008KT 9999 SCT014 BKN018
TEMPO 1304/1312 7000 -SN

Example: see airport list